createdAt,value
2019-05-19T00:05:11.557Z,16.73
2019-05-19T00:10:34.981Z,16.71
2019-05-19T00:15:56.763Z,16.68
2019-05-19T00:21:20.037Z,16.69
2019-05-19T00:26:42.768Z,16.68
2019-05-19T00:31:58.288Z,16.70
2019-05-19T00:37:21.573Z,16.65
2019-05-19T00:42:37.146Z,16.58
2019-05-19T00:48:00.701Z,16.57
2019-05-19T00:53:22.620Z,16.54
2019-05-19T00:58:47.077Z,16.49
2019-05-19T01:04:09.384Z,16.42
2019-05-19T01:09:33.225Z,16.36
2019-05-19T01:14:54.932Z,16.33
2019-05-19T01:20:18.609Z,16.29
2019-05-19T01:25:40.359Z,16.31
2019-05-19T01:31:04.372Z,16.28
2019-05-19T01:36:26.128Z,16.27
2019-05-19T01:41:49.462Z,16.26
2019-05-19T01:47:04.958Z,16.24
2019-05-19T01:52:28.293Z,16.24
2019-05-19T01:57:43.818Z,16.23
2019-05-19T02:03:07.055Z,16.24
2019-05-19T02:08:22.732Z,16.19
2019-05-19T02:13:46.082Z,16.19
2019-05-19T02:19:01.606Z,16.12
2019-05-19T02:24:24.796Z,16.11
2019-05-19T02:29:46.510Z,15.94
2019-05-19T02:35:11.699Z,15.94
2019-05-19T02:40:35.047Z,16.07
2019-05-19T02:46:01.694Z,16.09
2019-05-19T02:51:25.933Z,16.11
2019-05-19T02:56:50.352Z,16.10
2019-05-19T03:02:15.021Z,16.10
2019-05-19T03:07:36.737Z,16.09
2019-05-19T03:13:00.496Z,16.08
2019-05-19T03:18:22.394Z,16.10
2019-05-19T03:23:45.674Z,16.14
2019-05-19T03:29:08.186Z,16.17
2019-05-19T03:34:31.455Z,16.19
2019-05-19T03:39:46.977Z,16.20
2019-05-19T03:45:10.662Z,16.18
2019-05-19T03:50:32.451Z,16.20
2019-05-19T03:55:55.710Z,16.29
2019-05-19T04:01:17.429Z,16.46
2019-05-19T04:06:40.702Z,16.63
2019-05-19T04:12:02.467Z,16.76
2019-05-19T04:17:25.726Z,16.79
2019-05-19T04:22:47.494Z,16.80
2019-05-19T04:28:10.752Z,16.75
2019-05-19T04:33:26.261Z,16.80
2019-05-19T04:38:49.481Z,16.94
2019-05-19T04:44:05.020Z,17.07
2019-05-19T04:49:28.215Z,17.36
2019-05-19T04:54:43.739Z,17.55
2019-05-19T05:00:07.421Z,17.66
2019-05-19T05:05:30.421Z,17.69
2019-05-19T05:10:53.736Z,17.73
2019-05-19T05:16:15.504Z,17.84
2019-05-19T05:21:38.778Z,17.99
2019-05-19T05:26:54.278Z,18.18
2019-05-19T05:32:17.589Z,18.30
2019-05-19T05:37:40.840Z,18.33
2019-05-19T05:43:04.756Z,18.36
2019-05-19T05:48:28.034Z,18.38
2019-05-19T05:53:43.525Z,18.46
2019-05-19T05:59:07.063Z,18.58
2019-05-19T06:04:28.766Z,18.76
2019-05-19T06:09:50.523Z,18.90
2019-05-19T06:15:12.611Z,19.31
2019-05-19T06:20:35.873Z,19.62
2019-05-19T06:25:57.606Z,19.86
2019-05-19T06:31:20.903Z,19.92
2019-05-19T06:36:42.734Z,19.91
2019-05-19T06:42:06.015Z,19.94
2019-05-19T06:47:27.723Z,19.92
2019-05-19T06:52:51.002Z,19.94
2019-05-19T06:58:12.725Z,20.05
2019-05-19T07:03:36.038Z,20.14
2019-05-19T07:08:57.731Z,20.26
2019-05-19T07:14:21.080Z,20.30
2019-05-19T07:19:42.779Z,20.21
2019-05-19T07:25:06.056Z,20.16
2019-05-19T07:30:27.929Z,20.09
2019-05-19T07:35:51.298Z,20.07
2019-05-19T07:41:13.032Z,20.05
2019-05-19T07:46:36.313Z,20.16
2019-05-19T07:51:58.651Z,20.19
2019-05-19T07:57:20.369Z,20.31
2019-05-19T08:02:46.572Z,20.41
2019-05-19T08:08:15.411Z,20.44
2019-05-19T08:13:40.403Z,20.52
2019-05-19T08:19:02.354Z,20.54
2019-05-19T08:24:28.652Z,20.74
2019-05-19T08:29:55.180Z,20.84
2019-05-19T08:35:20.160Z,21.26
2019-05-19T08:40:44.505Z,22.00
2019-05-19T08:46:11.237Z,22.33
2019-05-19T08:51:32.986Z,22.78
2019-05-19T08:56:56.509Z,22.81
2019-05-19T09:02:20.064Z,22.71
2019-05-19T09:07:43.335Z,22.98
2019-05-19T09:13:06.647Z,23.44
2019-05-19T09:18:35.310Z,23.44
2019-05-19T09:23:57.110Z,23.87
2019-05-19T09:29:20.437Z,24.19
2019-05-19T09:34:42.132Z,24.66
2019-05-19T09:40:05.383Z,25.11
2019-05-19T09:45:28.558Z,25.21
2019-05-19T09:50:51.866Z,25.37
2019-05-19T09:56:13.705Z,25.75
2019-05-19T10:01:38.057Z,25.61
2019-05-19T10:07:01.010Z,25.26
2019-05-19T10:12:26.967Z,25.37
2019-05-19T10:17:50.234Z,25.59
2019-05-19T10:23:11.969Z,25.38
2019-05-19T10:28:35.320Z,25.15
2019-05-19T10:33:57.126Z,25.33
2019-05-19T10:39:20.498Z,25.48
2019-05-19T10:44:42.185Z,25.41
2019-05-19T10:50:05.485Z,25.43
2019-05-19T10:55:35.980Z,25.42
2019-05-19T11:00:52.425Z,24.57
2019-05-19T11:06:14.150Z,24.05
2019-05-19T11:11:37.419Z,23.92
2019-05-19T11:16:59.162Z,23.82
2019-05-19T11:22:22.444Z,23.73
2019-05-19T11:27:44.128Z,23.70
2019-05-19T11:33:07.381Z,23.84
2019-05-19T11:38:29.076Z,23.96
2019-05-19T11:43:52.309Z,24.16
2019-05-19T11:49:14.037Z,24.76
2019-05-19T11:54:37.235Z,25.40
2019-05-19T11:59:58.936Z,25.89
2019-05-19T12:05:23.724Z,26.01
2019-05-19T12:10:45.510Z,26.28
2019-05-19T12:16:07.210Z,26.42
2019-05-19T12:21:30.448Z,26.70
2019-05-19T12:26:52.142Z,26.77
2019-05-19T12:32:15.458Z,27.10
2019-05-19T12:37:37.176Z,27.48
2019-05-19T12:43:00.459Z,27.98
2019-05-19T12:48:22.201Z,28.24
2019-05-19T12:53:48.493Z,28.43
2019-05-19T12:59:10.232Z,28.18
2019-05-19T13:04:33.511Z,27.84
2019-05-19T13:09:55.216Z,27.60
2019-05-19T13:15:19.054Z,27.15
2019-05-19T13:20:40.772Z,26.83
2019-05-19T13:26:04.019Z,27.74
2019-05-19T13:31:25.724Z,28.42
2019-05-19T13:36:48.973Z,28.93
2019-05-19T13:42:10.674Z,28.74
2019-05-19T13:47:34.155Z,28.51
2019-05-19T13:52:55.878Z,28.59
2019-05-19T13:58:19.126Z,30.44
2019-05-19T14:03:40.831Z,31.40
2019-05-19T14:09:05.355Z,31.74
2019-05-19T14:14:27.048Z,32.76
2019-05-19T14:19:49.815Z,34.02
2019-05-19T14:25:12.397Z,35.02
2019-05-19T14:30:35.820Z,36.64
2019-05-19T14:35:59.078Z,38.10
2019-05-19T14:41:05.822Z,38.77
2019-05-19T14:46:14.179Z,39.23
2019-05-19T14:51:32.989Z,38.84
2019-05-19T14:56:56.291Z,38.74
2019-05-19T15:02:19.952Z,38.97
2019-05-19T15:07:42.963Z,39.70
2019-05-19T15:13:07.191Z,37.72
2019-05-19T15:18:30.438Z,35.84
2019-05-19T15:23:52.169Z,33.62
2019-05-19T15:29:15.409Z,32.48
2019-05-19T15:34:37.122Z,30.80
2019-05-19T15:40:00.375Z,31.69
2019-05-19T15:45:22.832Z,33.71
2019-05-19T15:50:46.090Z,35.48
2019-05-19T15:56:07.870Z,36.41
2019-05-19T16:01:31.160Z,36.99
2019-05-19T16:06:52.863Z,37.62
2019-05-19T16:12:16.065Z,37.24
2019-05-19T16:17:37.800Z,37.06
2019-05-19T16:23:01.093Z,36.69
2019-05-19T16:28:30.294Z,37.03
2019-05-19T16:33:47.921Z,36.93
2019-05-19T17:06:29.087Z,27.64
2019-05-19T17:11:54.290Z,26.70
2019-05-19T17:14:31.620Z,26.45
2019-05-19T17:21:25.901Z,26.42
2019-05-19T17:23:01.179Z,26.39
2019-05-19T17:23:55.342Z,26.19
2019-05-19T17:24:49.935Z,26.09
2019-05-19T17:25:43.046Z,25.98
2019-05-19T17:26:37.758Z,25.88
2019-05-19T17:27:31.884Z,25.80
2019-05-19T17:28:26.509Z,25.70
2019-05-19T17:29:20.327Z,25.60
2019-05-19T17:30:15.271Z,25.51
2019-05-19T17:31:09.077Z,25.42
2019-05-19T17:32:06.331Z,25.34
2019-05-19T17:32:59.718Z,25.27
2019-05-19T17:33:54.293Z,25.21
2019-05-19T17:34:48.415Z,25.16
2019-05-19T17:35:43.150Z,25.08
2019-05-19T17:36:37.171Z,25.02
2019-05-19T17:37:31.827Z,24.96
2019-05-19T17:38:25.612Z,24.90
2019-05-19T17:39:20.351Z,24.85
2019-05-19T17:40:14.354Z,24.88
2019-05-19T17:41:09.092Z,24.85
2019-05-19T17:42:49.396Z,25.01
2019-05-19T17:44:14.237Z,24.95
2019-05-19T17:45:37.959Z,24.87
2019-05-19T17:47:01.665Z,24.77
2019-05-19T17:48:26.998Z,24.71
2019-05-19T17:49:51.873Z,24.63
2019-05-19T17:51:15.777Z,24.57
2019-05-19T17:52:40.831Z,24.52
2019-05-19T17:54:05.008Z,24.46
2019-05-19T17:55:29.475Z,24.40
2019-05-19T18:06:49.880Z,16.08
2019-05-19T18:08:14.721Z,16.72
2019-05-19T18:10:18.271Z,18.45
2019-05-19T18:11:43.022Z,18.75
2019-05-19T18:13:07.275Z,19.12
2019-05-19T18:14:31.962Z,19.46
2019-05-19T18:15:55.883Z,19.74
2019-05-19T18:17:20.623Z,19.99
2019-05-19T18:18:44.589Z,20.24
2019-05-19T18:20:22.704Z,20.46
2019-05-19T18:21:34.734Z,20.66
2019-05-19T18:22:58.954Z,20.84
2019-05-19T18:24:23.493Z,20.99
2019-05-19T18:25:48.138Z,21.11
2019-05-19T18:27:12.052Z,21.26
2019-05-19T18:28:36.791Z,21.38
2019-05-19T18:30:01.037Z,21.49
2019-05-19T18:31:26.052Z,21.60
2019-05-19T18:32:50.273Z,21.71
2019-05-19T18:34:15.002Z,21.78
2019-05-19T18:35:38.985Z,21.87
2019-05-19T18:37:03.681Z,21.94
2019-05-19T18:38:27.894Z,22.02
2019-05-19T18:39:52.314Z,22.09
2019-05-19T18:41:16.571Z,22.14
2019-05-19T18:42:41.335Z,22.19
2019-05-19T18:44:05.517Z,22.24
2019-05-19T18:45:30.249Z,22.28
2019-05-19T18:46:54.192Z,22.32
2019-05-19T18:48:18.896Z,22.37
2019-05-19T18:49:43.124Z,22.39
2019-05-19T18:51:06.635Z,22.43
2019-05-19T18:52:30.940Z,22.46
2019-05-19T18:53:55.614Z,22.47
2019-05-19T18:55:20.396Z,22.49
2019-05-19T18:56:44.407Z,22.48
2019-05-19T18:58:08.399Z,22.52
2019-05-19T18:59:46.486Z,22.54
2019-05-19T19:01:00.621Z,22.56
2019-05-19T19:02:25.564Z,22.60
2019-05-19T19:03:49.482Z,22.68
2019-05-19T19:05:16.265Z,22.72
2019-05-19T19:06:41.209Z,22.74
2019-05-19T19:08:05.640Z,22.75
2019-05-19T19:09:29.549Z,22.75
2019-05-19T19:10:54.299Z,22.75
2019-05-19T19:12:18.241Z,22.72
2019-05-19T19:13:42.637Z,22.74
2019-05-19T19:23:17.087Z,23.26
2019-05-19T19:28:43.614Z,22.64
2019-05-19T19:34:07.701Z,22.31
2019-05-19T19:39:31.621Z,22.04
2019-05-19T19:44:55.874Z,21.85
2019-05-19T19:50:19.905Z,21.78
2019-05-19T19:55:43.731Z,21.68
2019-05-19T20:01:07.220Z,21.52
2019-05-19T20:06:31.310Z,21.38
2019-05-19T20:11:56.643Z,21.26
2019-05-19T20:17:22.281Z,21.10
2019-05-19T20:22:46.927Z,20.98
2019-05-19T20:28:12.320Z,21.03
2019-05-19T20:33:36.528Z,20.97
2019-05-19T20:39:01.756Z,20.77
2019-05-19T20:44:25.851Z,20.77
2019-05-19T20:49:51.493Z,20.66
2019-05-19T20:55:15.590Z,20.54
2019-05-19T21:00:49.898Z,20.50
2019-05-19T21:06:06.898Z,20.52
2019-05-19T21:11:32.504Z,20.51
2019-05-19T21:16:56.606Z,20.41
2019-05-19T21:22:21.638Z,20.30
2019-05-19T21:27:45.423Z,20.24
2019-05-19T21:33:11.071Z,20.14
2019-05-19T21:38:35.161Z,20.14
2019-05-19T21:44:00.797Z,20.10
2019-05-19T21:49:24.896Z,20.06
2019-05-19T21:54:50.226Z,19.97
2019-05-19T22:00:15.582Z,19.87
2019-05-19T22:05:53.005Z,19.76
2019-05-19T22:11:08.671Z,19.62
2019-05-19T22:16:32.765Z,19.58
2019-05-19T22:21:58.103Z,19.51
2019-05-19T22:27:21.612Z,19.41
2019-05-19T22:32:47.220Z,19.11
2019-05-19T22:38:11.328Z,19.00
2019-05-19T22:43:36.883Z,18.77
2019-05-19T22:49:01.066Z,18.78
2019-05-19T22:54:26.395Z,18.78
2019-05-19T22:59:50.187Z,18.68
2019-05-19T23:05:15.832Z,18.47
2019-05-19T23:10:39.308Z,18.33
2019-05-19T23:16:04.340Z,18.23
2019-05-19T23:21:28.437Z,18.22
2019-05-19T23:26:53.872Z,18.08
2019-05-19T23:32:18.175Z,18.08
2019-05-19T23:37:43.507Z,18.03
2019-05-19T23:43:07.905Z,17.78
2019-05-19T23:48:33.543Z,17.78
2019-05-19T23:53:57.653Z,17.78
2019-05-19T23:59:22.975Z,17.68
